sensor_id;sensor_type;location;lat;lon;timestamp;temperature;humidity
45843;DHT22;31563;51.744;8.252;2023-03-26T00:01:30;20.90;44.00
45843;DHT22;31563;51.744;8.252;2023-03-26T00:03:59;20.90;44.00
45843;DHT22;31563;51.744;8.252;2023-03-26T00:06:30;20.90;44.00
45843;DHT22;31563;51.744;8.252;2023-03-26T00:09:00;20.80;43.90
45843;DHT22;31563;51.744;8.252;2023-03-26T00:11:29;20.80;43.90
45843;DHT22;31563;51.744;8.252;2023-03-26T00:13:57;20.80;43.90
45843;DHT22;31563;51.744;8.252;2023-03-26T00:16:28;20.80;43.90
45843;DHT22;31563;51.744;8.252;2023-03-26T00:18:57;20.70;43.90
45843;DHT22;31563;51.744;8.252;2023-03-26T00:21:27;20.70;43.90
45843;DHT22;31563;51.744;8.252;2023-03-26T00:23:59;20.70;43.90
45843;DHT22;31563;51.744;8.252;2023-03-26T00:26:30;20.70;43.90
45843;DHT22;31563;51.744;8.252;2023-03-26T00:28:59;20.70;43.90
45843;DHT22;31563;51.744;8.252;2023-03-26T00:31:29;20.70;43.90
45843;DHT22;31563;51.744;8.252;2023-03-26T00:33:58;20.70;43.80
45843;DHT22;31563;51.744;8.252;2023-03-26T00:36:29;20.70;43.80
45843;DHT22;31563;51.744;8.252;2023-03-26T00:38:59;20.70;43.70
45843;DHT22;31563;51.744;8.252;2023-03-26T00:41:31;20.60;43.70
45843;DHT22;31563;51.744;8.252;2023-03-26T00:44:03;20.70;43.80
45843;DHT22;31563;51.744;8.252;2023-03-26T00:46:31;20.70;43.70
45843;DHT22;31563;51.744;8.252;2023-03-26T00:49:00;20.60;44.30
45843;DHT22;31563;51.744;8.252;2023-03-26T00:51:30;20.60;43.60
45843;DHT22;31563;51.744;8.252;2023-03-26T00:54:01;20.60;43.60
45843;DHT22;31563;51.744;8.252;2023-03-26T00:56:30;20.60;43.60
45843;DHT22;31563;51.744;8.252;2023-03-26T00:58:58;20.60;43.50
45843;DHT22;31563;51.744;8.252;2023-03-26T01:01:27;20.60;43.50
45843;DHT22;31563;51.744;8.252;2023-03-26T01:03:58;20.60;43.50
45843;DHT22;31563;51.744;8.252;2023-03-26T01:06:45;20.60;43.50
45843;DHT22;31563;51.744;8.252;2023-03-26T01:09:17;20.60;43.40
45843;DHT22;31563;51.744;8.252;2023-03-26T01:11:46;20.60;44.10
45843;DHT22;31563;51.744;8.252;2023-03-26T01:14:18;20.60;43.40
45843;DHT22;31563;51.744;8.252;2023-03-26T01:16:50;20.60;43.40
45843;DHT22;31563;51.744;8.252;2023-03-26T01:19:24;20.60;43.40
45843;DHT22;31563;51.744;8.252;2023-03-26T01:21:55;20.50;43.20
45843;DHT22;31563;51.744;8.252;2023-03-26T01:24:25;20.50;43.30
45843;DHT22;31563;51.744;8.252;2023-03-26T01:27:08;20.50;43.30
45843;DHT22;31563;51.744;8.252;2023-03-26T01:29:42;20.50;43.30
45843;DHT22;31563;51.744;8.252;2023-03-26T01:32:20;20.50;44.00
45843;DHT22;31563;51.744;8.252;2023-03-26T01:35:00;20.30;43.20
45843;DHT22;31563;51.744;8.252;2023-03-26T01:37:36;20.20;43.70
45843;DHT22;31563;51.744;8.252;2023-03-26T01:40:15;20.20;44.20
45843;DHT22;31563;51.744;8.252;2023-03-26T01:42:49;20.20;44.20
45843;DHT22;31563;51.744;8.252;2023-03-26T01:45:21;20.30;44.40
45843;DHT22;31563;51.744;8.252;2023-03-26T01:47:51;20.30;44.30
45843;DHT22;31563;51.744;8.252;2023-03-26T01:50:20;20.30;44.30
45843;DHT22;31563;51.744;8.252;2023-03-26T01:52:48;20.30;44.20
45843;DHT22;31563;51.744;8.252;2023-03-26T01:55:18;20.30;44.20
45843;DHT22;31563;51.744;8.252;2023-03-26T01:57:53;20.30;44.30
45843;DHT22;31563;51.744;8.252;2023-03-26T02:00:28;20.30;44.20
45843;DHT22;31563;51.744;8.252;2023-03-26T02:03:07;20.30;44.30
45843;DHT22;31563;51.744;8.252;2023-03-26T02:05:49;20.30;44.30
45843;DHT22;31563;51.744;8.252;2023-03-26T02:08:22;20.30;44.30
45843;DHT22;31563;51.744;8.252;2023-03-26T02:14:43;20.20;44.10
45843;DHT22;31563;51.744;8.252;2023-03-26T02:21:00;20.20;44.10
45843;DHT22;31563;51.744;8.252;2023-03-26T02:23:28;20.20;44.10
45843;DHT22;31563;51.744;8.252;2023-03-26T02:25:56;20.20;44.20
45843;DHT22;31563;51.744;8.252;2023-03-26T02:28:24;20.20;44.10
45843;DHT22;31563;51.744;8.252;2023-03-26T02:30:54;20.20;44.10
45843;DHT22;31563;51.744;8.252;2023-03-26T02:33:23;20.20;44.10
45843;DHT22;31563;51.744;8.252;2023-03-26T02:35:51;20.10;44.00
45843;DHT22;31563;51.744;8.252;2023-03-26T02:38:20;20.20;44.10
45843;DHT22;31563;51.744;8.252;2023-03-26T02:40:52;20.10;44.00
45843;DHT22;31563;51.744;8.252;2023-03-26T02:43:21;20.10;44.00
45843;DHT22;31563;51.744;8.252;2023-03-26T02:45:49;20.10;44.00
45843;DHT22;31563;51.744;8.252;2023-03-26T02:48:19;20.10;44.10
45843;DHT22;31563;51.744;8.252;2023-03-26T02:50:47;20.10;44.00
45843;DHT22;31563;51.744;8.252;2023-03-26T02:53:20;20.00;44.00
45843;DHT22;31563;51.744;8.252;2023-03-26T02:55:49;20.10;44.10
45843;DHT22;31563;51.744;8.252;2023-03-26T02:58:18;20.10;44.10
45843;DHT22;31563;51.744;8.252;2023-03-26T03:00:46;20.10;44.00
45843;DHT22;31563;51.744;8.252;2023-03-26T03:03:16;20.10;44.00
45843;DHT22;31563;51.744;8.252;2023-03-26T03:05:46;20.10;43.90
45843;DHT22;31563;51.744;8.252;2023-03-26T03:08:14;20.10;43.90
45843;DHT22;31563;51.744;8.252;2023-03-26T03:10:54;20.10;43.80
45843;DHT22;31563;51.744;8.252;2023-03-26T03:13:23;20.00;43.80
45843;DHT22;31563;51.744;8.252;2023-03-26T03:15:51;20.00;43.80
45843;DHT22;31563;51.744;8.252;2023-03-26T03:18:19;20.00;43.80
45843;DHT22;31563;51.744;8.252;2023-03-26T03:20:49;20.00;43.90
45843;DHT22;31563;51.744;8.252;2023-03-26T03:23:17;20.00;43.90
45843;DHT22;31563;51.744;8.252;2023-03-26T03:25:45;20.10;43.80
45843;DHT22;31563;51.744;8.252;2023-03-26T03:28:14;20.10;43.80
45843;DHT22;31563;51.744;8.252;2023-03-26T03:30:44;20.00;43.70
45843;DHT22;31563;51.744;8.252;2023-03-26T03:33:12;20.00;43.70
45843;DHT22;31563;51.744;8.252;2023-03-26T03:35:41;20.00;43.70
45843;DHT22;31563;51.744;8.252;2023-03-26T03:38:13;20.00;43.60
45843;DHT22;31563;51.744;8.252;2023-03-26T03:40:42;20.00;43.60
45843;DHT22;31563;51.744;8.252;2023-03-26T03:43:10;20.00;43.70
45843;DHT22;31563;51.744;8.252;2023-03-26T03:45:38;20.00;43.70
45843;DHT22;31563;51.744;8.252;2023-03-26T03:48:07;20.00;43.70
45843;DHT22;31563;51.744;8.252;2023-03-26T03:50:36;20.00;43.70
45843;DHT22;31563;51.744;8.252;2023-03-26T03:53:04;20.10;43.80
45843;DHT22;31563;51.744;8.252;2023-03-26T03:55:33;20.10;43.70
45843;DHT22;31563;51.744;8.252;2023-03-26T03:58:04;20.20;43.60
45843;DHT22;31563;51.744;8.252;2023-03-26T04:00:34;20.30;43.40
45843;DHT22;31563;51.744;8.252;2023-03-26T04:03:04;20.40;43.30
45843;DHT22;31563;51.744;8.252;2023-03-26T04:05:33;20.40;43.20
45843;DHT22;31563;51.744;8.252;2023-03-26T04:08:01;20.50;43.10
45843;DHT22;31563;51.744;8.252;2023-03-26T04:10:29;20.50;43.00
45843;DHT22;31563;51.744;8.252;2023-03-26T04:12:59;20.50;42.90
45843;DHT22;31563;51.744;8.252;2023-03-26T04:15:27;20.50;42.90
45843;DHT22;31563;51.744;8.252;2023-03-26T04:17:55;20.60;42.90
45843;DHT22;31563;51.744;8.252;2023-03-26T04:20:23;20.60;42.70
45843;DHT22;31563;51.744;8.252;2023-03-26T04:22:52;20.60;42.70
45843;DHT22;31563;51.744;8.252;2023-03-26T04:25:20;20.60;42.60
45843;DHT22;31563;51.744;8.252;2023-03-26T04:27:48;20.60;42.60
45843;DHT22;31563;51.744;8.252;2023-03-26T04:30:18;20.70;42.50
45843;DHT22;31563;51.744;8.252;2023-03-26T04:32:47;20.60;42.50
45843;DHT22;31563;51.744;8.252;2023-03-26T04:35:16;20.60;42.50
45843;DHT22;31563;51.744;8.252;2023-03-26T04:37:45;20.70;42.40
45843;DHT22;31563;51.744;8.252;2023-03-26T04:40:15;20.70;42.40
45843;DHT22;31563;51.744;8.252;2023-03-26T04:42:45;20.70;42.40
45843;DHT22;31563;51.744;8.252;2023-03-26T04:45:15;20.70;42.40
45843;DHT22;31563;51.744;8.252;2023-03-26T04:47:50;20.70;42.30
45843;DHT22;31563;51.744;8.252;2023-03-26T04:50:18;20.70;42.30
45843;DHT22;31563;51.744;8.252;2023-03-26T04:52:46;20.70;42.20
45843;DHT22;31563;51.744;8.252;2023-03-26T04:55:20;20.70;42.20
45843;DHT22;31563;51.744;8.252;2023-03-26T04:57:54;20.70;42.10
45843;DHT22;31563;51.744;8.252;2023-03-26T05:00:22;20.80;42.20
45843;DHT22;31563;51.744;8.252;2023-03-26T05:02:52;20.80;42.10
45843;DHT22;31563;51.744;8.252;2023-03-26T05:05:24;20.80;42.10
45843;DHT22;31563;51.744;8.252;2023-03-26T05:07:52;20.80;42.10
45843;DHT22;31563;51.744;8.252;2023-03-26T05:10:21;20.80;42.00
45843;DHT22;31563;51.744;8.252;2023-03-26T05:12:49;20.80;42.00
45843;DHT22;31563;51.744;8.252;2023-03-26T05:15:17;20.80;42.00
45843;DHT22;31563;51.744;8.252;2023-03-26T05:17:46;20.80;42.00
45843;DHT22;31563;51.744;8.252;2023-03-26T05:20:17;20.80;41.90
45843;DHT22;31563;51.744;8.252;2023-03-26T05:22:47;20.80;41.90
45843;DHT22;31563;51.744;8.252;2023-03-26T05:25:16;20.80;42.00
45843;DHT22;31563;51.744;8.252;2023-03-26T05:27:45;20.70;41.90
45843;DHT22;31563;51.744;8.252;2023-03-26T05:30:15;20.80;42.00
45843;DHT22;31563;51.744;8.252;2023-03-26T05:32:44;20.70;41.80
45843;DHT22;31563;51.744;8.252;2023-03-26T05:35:16;20.80;41.90
45843;DHT22;31563;51.744;8.252;2023-03-26T05:37:45;20.90;41.90
45843;DHT22;31563;51.744;8.252;2023-03-26T05:40:15;20.80;41.80
45843;DHT22;31563;51.744;8.252;2023-03-26T05:42:44;20.80;41.70
45843;DHT22;31563;51.744;8.252;2023-03-26T05:45:13;20.80;41.70
45843;DHT22;31563;51.744;8.252;2023-03-26T05:47:42;20.80;41.70
45843;DHT22;31563;51.744;8.252;2023-03-26T05:50:10;20.90;41.70
45843;DHT22;31563;51.744;8.252;2023-03-26T05:52:40;20.90;41.70
45843;DHT22;31563;51.744;8.252;2023-03-26T05:55:09;20.90;41.70
45843;DHT22;31563;51.744;8.252;2023-03-26T05:57:37;20.90;41.60
45843;DHT22;31563;51.744;8.252;2023-03-26T06:00:06;20.90;41.50
45843;DHT22;31563;51.744;8.252;2023-03-26T06:02:36;20.90;41.50
45843;DHT22;31563;51.744;8.252;2023-03-26T06:05:05;20.90;41.60
45843;DHT22;31563;51.744;8.252;2023-03-26T06:07:34;20.90;41.60
45843;DHT22;31563;51.744;8.252;2023-03-26T06:10:04;21.00;41.60
45843;DHT22;31563;51.744;8.252;2023-03-26T06:12:33;21.10;41.50
45843;DHT22;31563;51.744;8.252;2023-03-26T06:15:03;21.10;41.50
45843;DHT22;31563;51.744;8.252;2023-03-26T06:17:31;21.10;41.50
45843;DHT22;31563;51.744;8.252;2023-03-26T06:19:59;21.00;41.30
45843;DHT22;31563;51.744;8.252;2023-03-26T06:22:27;21.00;41.30
45843;DHT22;31563;51.744;8.252;2023-03-26T06:24:56;21.10;41.30
45843;DHT22;31563;51.744;8.252;2023-03-26T06:27:25;21.10;41.30
45843;DHT22;31563;51.744;8.252;2023-03-26T06:29:53;21.20;41.40
45843;DHT22;31563;51.744;8.252;2023-03-26T06:32:22;21.20;41.40
45843;DHT22;31563;51.744;8.252;2023-03-26T06:34:50;21.20;41.30
45843;DHT22;31563;51.744;8.252;2023-03-26T06:37:18;21.20;41.10
45843;DHT22;31563;51.744;8.252;2023-03-26T06:39:47;21.20;41.10
45843;DHT22;31563;51.744;8.252;2023-03-26T06:42:15;21.30;41.10
45843;DHT22;31563;51.744;8.252;2023-03-26T06:44:44;21.40;41.10
45843;DHT22;31563;51.744;8.252;2023-03-26T06:47:12;21.40;41.10
45843;DHT22;31563;51.744;8.252;2023-03-26T06:49:41;21.40;41.00
45843;DHT22;31563;51.744;8.252;2023-03-26T06:52:11;21.40;40.90
45843;DHT22;31563;51.744;8.252;2023-03-26T06:54:39;21.40;40.90
45843;DHT22;31563;51.744;8.252;2023-03-26T06:57:07;21.40;40.90
45843;DHT22;31563;51.744;8.252;2023-03-26T06:59:36;21.40;40.80
45843;DHT22;31563;51.744;8.252;2023-03-26T07:02:05;21.50;40.80
45843;DHT22;31563;51.744;8.252;2023-03-26T07:04:34;21.50;40.80
45843;DHT22;31563;51.744;8.252;2023-03-26T07:07:02;21.50;40.70
45843;DHT22;31563;51.744;8.252;2023-03-26T07:09:30;21.50;40.70
45843;DHT22;31563;51.744;8.252;2023-03-26T07:11:58;21.50;40.70
45843;DHT22;31563;51.744;8.252;2023-03-26T07:14:27;21.50;40.70
45843;DHT22;31563;51.744;8.252;2023-03-26T07:16:57;21.50;40.70
45843;DHT22;31563;51.744;8.252;2023-03-26T07:19:26;21.50;40.70
45843;DHT22;31563;51.744;8.252;2023-03-26T07:21:55;21.50;40.60
45843;DHT22;31563;51.744;8.252;2023-03-26T07:24:24;21.60;40.60
45843;DHT22;31563;51.744;8.252;2023-03-26T07:26:57;21.60;40.70
45843;DHT22;31563;51.744;8.252;2023-03-26T07:29:33;21.60;40.60
45843;DHT22;31563;51.744;8.252;2023-03-26T07:32:08;21.70;40.60
45843;DHT22;31563;51.744;8.252;2023-03-26T07:34:48;21.70;40.50
45843;DHT22;31563;51.744;8.252;2023-03-26T07:37:29;21.80;40.60
45843;DHT22;31563;51.744;8.252;2023-03-26T07:40:03;21.80;40.50
45843;DHT22;31563;51.744;8.252;2023-03-26T07:42:47;21.90;40.40
45843;DHT22;31563;51.744;8.252;2023-03-26T07:45:24;21.90;40.40
45843;DHT22;31563;51.744;8.252;2023-03-26T07:47:59;22.00;41.00
45843;DHT22;31563;51.744;8.252;2023-03-26T07:50:29;22.00;40.30
45843;DHT22;31563;51.744;8.252;2023-03-26T07:52:57;22.00;40.30
45843;DHT22;31563;51.744;8.252;2023-03-26T07:55:26;22.00;40.20
45843;DHT22;31563;51.744;8.252;2023-03-26T07:58:03;22.10;40.10
45843;DHT22;31563;51.744;8.252;2023-03-26T08:00:39;22.10;40.00
45843;DHT22;31563;51.744;8.252;2023-03-26T08:03:38;22.10;40.10
45843;DHT22;31563;51.744;8.252;2023-03-26T08:06:16;22.20;40.10
45843;DHT22;31563;51.744;8.252;2023-03-26T08:08:52;22.10;40.30
45843;DHT22;31563;51.744;8.252;2023-03-26T08:11:30;22.10;40.70
45843;DHT22;31563;51.744;8.252;2023-03-26T08:14:12;22.10;41.00
45843;DHT22;31563;51.744;8.252;2023-03-26T08:16:49;22.20;41.10
45843;DHT22;31563;51.744;8.252;2023-03-26T08:19:32;22.20;41.30
45843;DHT22;31563;51.744;8.252;2023-03-26T08:22:12;22.20;41.30
45843;DHT22;31563;51.744;8.252;2023-03-26T08:25:02;22.30;41.50
45843;DHT22;31563;51.744;8.252;2023-03-26T08:27:38;22.30;41.30
45843;DHT22;31563;51.744;8.252;2023-03-26T08:30:10;22.30;41.40
45843;DHT22;31563;51.744;8.252;2023-03-26T08:32:41;22.30;41.50
45843;DHT22;31563;51.744;8.252;2023-03-26T08:35:11;22.30;41.40
45843;DHT22;31563;51.744;8.252;2023-03-26T08:37:40;22.30;41.50
45843;DHT22;31563;51.744;8.252;2023-03-26T08:40:11;22.30;41.50
45843;DHT22;31563;51.744;8.252;2023-03-26T08:43:02;22.40;41.50
45843;DHT22;31563;51.744;8.252;2023-03-26T08:49:02;22.50;41.40
45843;DHT22;31563;51.744;8.252;2023-03-26T08:52:08;22.70;41.40
45843;DHT22;31563;51.744;8.252;2023-03-26T08:55:14;22.70;41.30
45843;DHT22;31563;51.744;8.252;2023-03-26T08:58:33;22.80;41.10
45843;DHT22;31563;51.744;8.252;2023-03-26T09:04:36;22.90;41.00
45843;DHT22;31563;51.744;8.252;2023-03-26T09:10:49;23.00;41.00
45843;DHT22;31563;51.744;8.252;2023-03-26T09:19:56;23.00;40.70
45843;DHT22;31563;51.744;8.252;2023-03-26T09:22:47;23.10;40.70
45843;DHT22;31563;51.744;8.252;2023-03-26T09:25:38;23.10;40.60
45843;DHT22;31563;51.744;8.252;2023-03-26T09:31:49;23.20;40.60
45843;DHT22;31563;51.744;8.252;2023-03-26T09:34:27;23.30;40.60
45843;DHT22;31563;51.744;8.252;2023-03-26T09:37:13;23.30;40.60
45843;DHT22;31563;51.744;8.252;2023-03-26T09:39:55;23.30;40.40
45843;DHT22;31563;51.744;8.252;2023-03-26T09:42:36;23.40;40.40
45843;DHT22;31563;51.744;8.252;2023-03-26T09:48:35;23.50;40.30
45843;DHT22;31563;51.744;8.252;2023-03-26T09:51:19;23.60;40.30
45843;DHT22;31563;51.744;8.252;2023-03-26T09:56:53;23.60;39.80
45843;DHT22;31563;51.744;8.252;2023-03-26T10:00:04;23.60;40.00
45843;DHT22;31563;51.744;8.252;2023-03-26T10:02:52;23.70;39.90
45843;DHT22;31563;51.744;8.252;2023-03-26T10:05:34;23.70;39.60
45843;DHT22;31563;51.744;8.252;2023-03-26T10:08:45;23.70;39.90
45843;DHT22;31563;51.744;8.252;2023-03-26T10:11:21;23.70;39.80
45843;DHT22;31563;51.744;8.252;2023-03-26T10:14:02;23.70;39.70
45843;DHT22;31563;51.744;8.252;2023-03-26T10:16:41;23.80;39.70
45843;DHT22;31563;51.744;8.252;2023-03-26T10:22:22;23.80;39.70
45843;DHT22;31563;51.744;8.252;2023-03-26T10:25:17;23.80;39.60
45843;DHT22;31563;51.744;8.252;2023-03-26T10:27:59;23.80;39.60
45843;DHT22;31563;51.744;8.252;2023-03-26T10:30:59;23.70;39.50
45843;DHT22;31563;51.744;8.252;2023-03-26T10:33:39;23.70;39.60
45843;DHT22;31563;51.744;8.252;2023-03-26T10:36:24;23.70;39.50
45843;DHT22;31563;51.744;8.252;2023-03-26T10:42:19;23.70;40.10
45843;DHT22;31563;51.744;8.252;2023-03-26T10:45:17;23.60;39.50
45843;DHT22;31563;51.744;8.252;2023-03-26T10:48:09;23.70;39.60
45843;DHT22;31563;51.744;8.252;2023-03-26T10:53:45;23.60;39.60
45843;DHT22;31563;51.744;8.252;2023-03-26T10:56:30;23.60;39.70
45843;DHT22;31563;51.744;8.252;2023-03-26T10:59:03;23.60;39.70
45843;DHT22;31563;51.744;8.252;2023-03-26T11:01:40;23.60;39.60
45843;DHT22;31563;51.744;8.252;2023-03-26T11:04:19;23.60;39.70
45843;DHT22;31563;51.744;8.252;2023-03-26T11:06:57;23.60;39.70
45843;DHT22;31563;51.744;8.252;2023-03-26T11:09:32;23.60;39.70
45843;DHT22;31563;51.744;8.252;2023-03-26T11:12:10;23.60;39.80
45843;DHT22;31563;51.744;8.252;2023-03-26T11:15:04;23.60;39.80
45843;DHT22;31563;51.744;8.252;2023-03-26T11:17:41;23.60;39.80
45843;DHT22;31563;51.744;8.252;2023-03-26T11:20:15;23.60;39.80
45843;DHT22;31563;51.744;8.252;2023-03-26T11:22:57;23.70;39.90
45843;DHT22;31563;51.744;8.252;2023-03-26T11:25:41;23.70;39.70
45843;DHT22;31563;51.744;8.252;2023-03-26T11:28:25;23.70;39.70
45843;DHT22;31563;51.744;8.252;2023-03-26T11:30:59;23.70;39.70
45843;DHT22;31563;51.744;8.252;2023-03-26T11:33:31;23.80;39.70
45843;DHT22;31563;51.744;8.252;2023-03-26T11:36:05;23.80;39.70
45843;DHT22;31563;51.744;8.252;2023-03-26T11:38:37;23.80;39.70
45843;DHT22;31563;51.744;8.252;2023-03-26T11:41:11;23.80;39.60
45843;DHT22;31563;51.744;8.252;2023-03-26T11:43:43;23.80;39.60
45843;DHT22;31563;51.744;8.252;2023-03-26T11:46:17;23.80;39.60
45843;DHT22;31563;51.744;8.252;2023-03-26T11:48:49;23.90;39.70
45843;DHT22;31563;51.744;8.252;2023-03-26T11:51:22;24.00;39.60
45843;DHT22;31563;51.744;8.252;2023-03-26T11:53:52;24.00;39.50
45843;DHT22;31563;51.744;8.252;2023-03-26T11:56:25;24.00;39.30
45843;DHT22;31563;51.744;8.252;2023-03-26T11:58:57;24.00;39.40
45843;DHT22;31563;51.744;8.252;2023-03-26T12:01:40;23.90;39.30
45843;DHT22;31563;51.744;8.252;2023-03-26T12:04:12;23.90;39.30
45843;DHT22;31563;51.744;8.252;2023-03-26T12:06:51;23.80;39.30
45843;DHT22;31563;51.744;8.252;2023-03-26T12:09:24;23.80;39.30
45843;DHT22;31563;51.744;8.252;2023-03-26T12:11:59;23.80;39.30
45843;DHT22;31563;51.744;8.252;2023-03-26T12:14:31;23.80;39.40
45843;DHT22;31563;51.744;8.252;2023-03-26T12:17:03;23.80;39.50
45843;DHT22;31563;51.744;8.252;2023-03-26T12:19:37;23.80;39.50
45843;DHT22;31563;51.744;8.252;2023-03-26T12:22:26;23.90;39.50
45843;DHT22;31563;51.744;8.252;2023-03-26T12:25:14;23.90;39.50
45843;DHT22;31563;51.744;8.252;2023-03-26T12:27:43;23.90;39.40
45843;DHT22;31563;51.744;8.252;2023-03-26T12:30:20;23.90;39.40
45843;DHT22;31563;51.744;8.252;2023-03-26T12:32:50;23.80;39.40
45843;DHT22;31563;51.744;8.252;2023-03-26T12:35:24;23.80;39.60
45843;DHT22;31563;51.744;8.252;2023-03-26T12:37:54;23.80;39.60
45843;DHT22;31563;51.744;8.252;2023-03-26T12:40:30;23.80;39.70
45843;DHT22;31563;51.744;8.252;2023-03-26T12:43:01;23.80;39.70
45843;DHT22;31563;51.744;8.252;2023-03-26T12:45:54;23.80;39.80
45843;DHT22;31563;51.744;8.252;2023-03-26T12:48:44;23.80;39.80
45843;DHT22;31563;51.744;8.252;2023-03-26T12:51:20;23.80;39.80
45843;DHT22;31563;51.744;8.252;2023-03-26T12:53:57;23.80;39.70
45843;DHT22;31563;51.744;8.252;2023-03-26T12:56:38;23.80;39.80
45843;DHT22;31563;51.744;8.252;2023-03-26T12:59:27;23.80;39.80
45843;DHT22;31563;51.744;8.252;2023-03-26T13:02:05;23.80;39.80
45843;DHT22;31563;51.744;8.252;2023-03-26T13:05:00;23.80;39.80
45843;DHT22;31563;51.744;8.252;2023-03-26T13:07:45;23.80;39.90
45843;DHT22;31563;51.744;8.252;2023-03-26T13:10:39;23.70;39.80
45843;DHT22;31563;51.744;8.252;2023-03-26T13:16:08;23.80;39.90
45843;DHT22;31563;51.744;8.252;2023-03-26T13:18:45;23.80;39.90
45843;DHT22;31563;51.744;8.252;2023-03-26T13:21:21;23.80;39.90
45843;DHT22;31563;51.744;8.252;2023-03-26T13:23:55;23.80;39.90
45843;DHT22;31563;51.744;8.252;2023-03-26T13:26:37;23.80;39.90
45843;DHT22;31563;51.744;8.252;2023-03-26T13:29:13;23.80;39.80
45843;DHT22;31563;51.744;8.252;2023-03-26T13:31:50;23.80;39.80
45843;DHT22;31563;51.744;8.252;2023-03-26T13:34:27;23.80;39.80
45843;DHT22;31563;51.744;8.252;2023-03-26T13:37:04;23.80;39.90
45843;DHT22;31563;51.744;8.252;2023-03-26T13:39:41;23.80;39.90
45843;DHT22;31563;51.744;8.252;2023-03-26T13:42:37;23.80;40.50
45843;DHT22;31563;51.744;8.252;2023-03-26T13:45:19;23.80;39.80
45843;DHT22;31563;51.744;8.252;2023-03-26T13:47:54;23.80;39.80
45843;DHT22;31563;51.744;8.252;2023-03-26T13:50:26;23.70;39.80
45843;DHT22;31563;51.744;8.252;2023-03-26T13:52:59;23.70;39.80
45843;DHT22;31563;51.744;8.252;2023-03-26T13:55:32;23.70;39.80
45843;DHT22;31563;51.744;8.252;2023-03-26T13:58:09;23.70;39.90
45843;DHT22;31563;51.744;8.252;2023-03-26T14:00:53;23.70;39.90
45843;DHT22;31563;51.744;8.252;2023-03-26T14:03:28;23.70;39.60
45843;DHT22;31563;51.744;8.252;2023-03-26T14:06:07;23.40;38.60
45843;DHT22;31563;51.744;8.252;2023-03-26T14:08:41;23.10;39.30
45843;DHT22;31563;51.744;8.252;2023-03-26T14:11:13;23.00;39.60
45843;DHT22;31563;51.744;8.252;2023-03-26T14:13:46;22.80;39.90
45843;DHT22;31563;51.744;8.252;2023-03-26T14:16:19;22.70;40.20
45843;DHT22;31563;51.744;8.252;2023-03-26T14:18:53;22.60;41.10
45843;DHT22;31563;51.744;8.252;2023-03-26T14:21:39;22.80;41.80
45843;DHT22;31563;51.744;8.252;2023-03-26T14:24:26;22.90;41.70
45843;DHT22;31563;51.744;8.252;2023-03-26T14:27:11;23.10;41.50
45843;DHT22;31563;51.744;8.252;2023-03-26T14:29:58;23.20;41.50
45843;DHT22;31563;51.744;8.252;2023-03-26T14:32:47;23.30;41.50
45843;DHT22;31563;51.744;8.252;2023-03-26T14:35:27;23.40;41.80
45843;DHT22;31563;51.744;8.252;2023-03-26T14:38:32;23.50;41.90
45843;DHT22;31563;51.744;8.252;2023-03-26T14:41:17;23.70;41.90
45843;DHT22;31563;51.744;8.252;2023-03-26T14:47:05;23.80;41.90
45843;DHT22;31563;51.744;8.252;2023-03-26T14:50:13;23.80;42.00
45843;DHT22;31563;51.744;8.252;2023-03-26T14:52:49;23.80;42.00
45843;DHT22;31563;51.744;8.252;2023-03-26T14:55:36;23.80;42.10
45843;DHT22;31563;51.744;8.252;2023-03-26T15:01:25;23.70;42.30
45843;DHT22;31563;51.744;8.252;2023-03-26T15:04:19;23.70;42.40
45843;DHT22;31563;51.744;8.252;2023-03-26T15:07:24;23.60;42.50
45843;DHT22;31563;51.744;8.252;2023-03-26T15:10:24;23.60;42.80
45843;DHT22;31563;51.744;8.252;2023-03-26T15:13:37;23.60;43.00
45843;DHT22;31563;51.744;8.252;2023-03-26T15:16:26;23.60;43.20
45843;DHT22;31563;51.744;8.252;2023-03-26T15:22:31;23.60;43.50
45843;DHT22;31563;51.744;8.252;2023-03-26T15:31:46;23.50;43.90
45843;DHT22;31563;51.744;8.252;2023-03-26T15:34:52;23.50;44.00
45843;DHT22;31563;51.744;8.252;2023-03-26T15:40:55;23.40;44.40
45843;DHT22;31563;51.744;8.252;2023-03-26T15:43:44;23.40;44.70
45843;DHT22;31563;51.744;8.252;2023-03-26T15:47:15;23.40;44.80
45843;DHT22;31563;51.744;8.252;2023-03-26T15:49:49;23.40;45.00
45843;DHT22;31563;51.744;8.252;2023-03-26T15:52:27;23.30;45.20
45843;DHT22;31563;51.744;8.252;2023-03-26T15:55:04;23.20;45.60
45843;DHT22;31563;51.744;8.252;2023-03-26T15:57:41;23.20;46.10
45843;DHT22;31563;51.744;8.252;2023-03-26T16:00:19;23.10;45.50
45843;DHT22;31563;51.744;8.252;2023-03-26T16:03:18;23.00;46.00
45843;DHT22;31563;51.744;8.252;2023-03-26T16:06:14;23.00;46.10
45843;DHT22;31563;51.744;8.252;2023-03-26T16:08:54;22.90;46.50
45843;DHT22;31563;51.744;8.252;2023-03-26T16:11:45;22.90;46.30
45843;DHT22;31563;51.744;8.252;2023-03-26T16:14:18;22.80;46.50
45843;DHT22;31563;51.744;8.252;2023-03-26T16:16:54;22.80;46.80
45843;DHT22;31563;51.744;8.252;2023-03-26T16:19:35;22.70;47.00
45843;DHT22;31563;51.744;8.252;2023-03-26T16:22:15;22.70;47.10
45843;DHT22;31563;51.744;8.252;2023-03-26T16:25:21;22.70;47.10
45843;DHT22;31563;51.744;8.252;2023-03-26T16:31:31;22.60;47.00
45843;DHT22;31563;51.744;8.252;2023-03-26T16:34:25;22.50;47.10
45843;DHT22;31563;51.744;8.252;2023-03-26T16:36:54;22.50;47.20
45843;DHT22;31563;51.744;8.252;2023-03-26T16:39:38;22.50;47.20
45843;DHT22;31563;51.744;8.252;2023-03-26T16:42:35;22.50;47.20
45843;DHT22;31563;51.744;8.252;2023-03-26T16:45:20;22.50;47.20
45843;DHT22;31563;51.744;8.252;2023-03-26T16:48:01;22.40;47.10
45843;DHT22;31563;51.744;8.252;2023-03-26T16:50:41;22.50;47.20
45843;DHT22;31563;51.744;8.252;2023-03-26T16:53:31;22.50;47.20
45843;DHT22;31563;51.744;8.252;2023-03-26T16:56:05;22.40;47.10
45843;DHT22;31563;51.744;8.252;2023-03-26T16:58:50;22.40;47.10
45843;DHT22;31563;51.744;8.252;2023-03-26T17:01:27;22.40;47.00
45843;DHT22;31563;51.744;8.252;2023-03-26T17:04:03;22.30;47.00
45843;DHT22;31563;51.744;8.252;2023-03-26T17:06:55;22.30;46.90
45843;DHT22;31563;51.744;8.252;2023-03-26T17:09:34;22.20;46.80
45843;DHT22;31563;51.744;8.252;2023-03-26T17:12:13;22.20;46.90
45843;DHT22;31563;51.744;8.252;2023-03-26T17:15:00;22.20;47.00
45843;DHT22;31563;51.744;8.252;2023-03-26T17:17:48;22.20;46.90
45843;DHT22;31563;51.744;8.252;2023-03-26T17:20:28;22.10;46.80
45843;DHT22;31563;51.744;8.252;2023-03-26T17:25:59;22.20;47.30
45843;DHT22;31563;51.744;8.252;2023-03-26T17:28:52;22.30;47.50
45843;DHT22;31563;51.744;8.252;2023-03-26T17:31:34;22.30;47.80
45843;DHT22;31563;51.744;8.252;2023-03-26T17:34:31;22.30;48.00
45843;DHT22;31563;51.744;8.252;2023-03-26T17:37:03;22.30;48.00
45843;DHT22;31563;51.744;8.252;2023-03-26T17:42:38;22.30;48.70